createdAt,value
2023-05-16T00:08:09.376Z,51.60
2023-05-16T00:18:18.370Z,52.60
2023-05-16T00:28:25.224Z,54.20
2023-05-16T00:38:33.698Z,54.10
2023-05-16T00:48:40.790Z,55.10
2023-05-16T00:58:49.225Z,53.80
2023-05-16T01:08:56.082Z,52.80
2023-05-16T01:19:17.197Z,51.90
2023-05-16T01:29:27.155Z,52.20
2023-05-16T01:39:40.605Z,53.20
2023-05-16T01:49:54.031Z,52.50
2023-05-16T02:00:01.808Z,51.00
2023-05-16T02:10:16.293Z,51.70
2023-05-16T02:20:23.829Z,52.50
2023-05-16T02:30:33.705Z,62.70
2023-05-16T02:40:41.331Z,57.20
2023-05-16T02:50:50.195Z,56.00
2023-05-16T03:00:57.341Z,56.00
2023-05-16T03:11:09.655Z,55.50
2023-05-16T03:22:31.723Z,55.10
2023-05-16T03:32:55.944Z,55.20
2023-05-16T03:43:07.044Z,57.00
2023-05-16T03:53:15.704Z,56.40
2023-05-16T04:03:29.092Z,55.40
2023-05-16T04:25:39.786Z,56.00
2023-05-16T04:35:51.223Z,55.90
2023-05-16T04:46:03.008Z,55.70
2023-05-16T04:56:10.853Z,55.30
2023-05-16T05:06:46.431Z,54.90
2023-05-16T05:17:27.594Z,54.40
2023-05-16T05:27:36.697Z,54.60
2023-05-16T05:37:43.399Z,53.40
2023-05-16T05:47:51.934Z,53.20
2023-05-16T05:57:58.825Z,52.80
2023-05-16T06:34:16.322Z,52.50
2023-05-16T06:57:48.177Z,52.50
2023-05-16T07:31:42.312Z,52.50
2023-05-16T08:31:16.060Z,52.10
2023-05-16T08:54:27.438Z,51.90
2023-05-16T09:06:04.523Z,51.60
2023-05-16T09:51:35.098Z,51.80
2023-05-16T10:01:57.944Z,51.80
2023-05-16T10:12:11.104Z,51.90
2023-05-16T10:22:25.089Z,51.90
2023-05-16T10:32:33.074Z,51.90
2023-05-16T10:43:00.549Z,51.90
2023-05-16T10:53:20.557Z,51.90
2023-05-16T11:03:36.961Z,52.00
2023-05-16T11:13:58.672Z,52.00
2023-05-16T11:24:38.016Z,52.00
2023-05-16T11:35:08.243Z,52.00
2023-05-16T11:45:20.684Z,52.10
2023-05-16T11:55:40.999Z,52.10
2023-05-16T12:06:08.376Z,52.10
2023-05-16T12:16:19.206Z,52.20
2023-05-16T12:26:39.565Z,52.20
2023-05-16T12:36:47.049Z,52.20
2023-05-16T12:47:03.377Z,52.20
2023-05-16T12:57:35.101Z,52.20
2023-05-16T13:07:56.789Z,52.20
2023-05-16T13:18:14.613Z,52.20
2023-05-16T13:28:33.286Z,52.20
2023-05-16T13:38:44.975Z,52.20
2023-05-16T13:49:09.478Z,52.20
2023-05-16T13:59:31.843Z,52.20
2023-05-16T14:09:51.437Z,52.30
2023-05-16T14:19:58.222Z,54.40
2023-05-16T14:31:18.285Z,55.50
2023-05-16T14:42:08.263Z,56.00
2023-05-16T14:52:23.820Z,56.60
2023-05-16T15:02:32.371Z,56.70
2023-05-16T15:12:41.881Z,55.80
2023-05-16T15:22:50.560Z,55.30
2023-05-16T15:32:57.529Z,55.40
2023-05-16T15:43:06.373Z,55.50
2023-05-16T15:53:13.209Z,55.50
2023-05-16T16:03:21.902Z,55.40
2023-05-16T16:13:29.680Z,55.50
2023-05-16T16:23:38.208Z,55.80
2023-05-16T16:33:45.648Z,56.00
2023-05-16T16:43:54.284Z,56.10
2023-05-16T16:54:01.220Z,56.30
2023-05-16T17:04:09.867Z,56.40
2023-05-16T17:14:17.863Z,56.60
2023-05-16T17:24:26.506Z,56.60
2023-05-16T17:34:33.892Z,56.50
2023-05-16T17:44:42.300Z,56.50
2023-05-16T17:54:49.028Z,56.60
2023-05-16T18:04:57.547Z,56.50
2023-05-16T18:15:05.032Z,56.30
2023-05-16T18:25:14.324Z,56.10
2023-05-16T18:35:21.415Z,56.10
2023-05-16T18:45:30.638Z,56.10
2023-05-16T18:55:37.688Z,56.00
2023-05-16T19:05:48.102Z,56.00
2023-05-16T19:15:55.884Z,56.00
2023-05-16T19:26:04.942Z,56.00
2023-05-16T19:36:12.149Z,56.00
2023-05-16T19:46:20.737Z,56.00
2023-05-16T19:56:28.077Z,56.40
2023-05-16T20:06:37.054Z,57.20
2023-05-16T20:16:44.367Z,57.80
2023-05-16T20:26:53.353Z,58.30
2023-05-16T20:37:00.317Z,58.80
2023-05-16T20:47:09.090Z,59.20
2023-05-16T20:57:15.940Z,59.50
2023-05-16T21:07:24.439Z,59.40
2023-05-16T21:17:31.943Z,59.50
2023-05-16T21:27:40.872Z,59.60
2023-05-16T21:37:47.608Z,59.60
2023-05-16T21:47:56.219Z,59.90
2023-05-16T21:58:03.139Z,59.90
2023-05-16T22:08:11.733Z,60.00
2023-05-16T22:18:19.186Z,60.10
2023-05-16T22:28:27.757Z,60.00
2023-05-16T22:38:35.483Z,60.20
2023-05-16T22:48:44.109Z,60.50
2023-05-16T22:58:50.899Z,60.60
2023-05-16T23:09:00.992Z,60.60
2023-05-16T23:19:09.425Z,61.20
2023-05-16T23:29:18.464Z,61.50
2023-05-16T23:39:25.349Z,61.40
2023-05-16T23:49:34.213Z,61.90
2023-05-16T23:59:41.923Z,62.10
